createdAt,value
2023-05-06T05:03:56.762Z,19.60
2023-05-06T05:08:59.650Z,17.33
2023-05-06T05:14:02.726Z,17.95
2023-05-06T05:19:08.346Z,17.15
2023-05-06T05:24:10.915Z,15.02
2023-05-06T05:29:12.459Z,15.13
2023-05-06T05:34:14.028Z,15.20
2023-05-06T05:39:15.865Z,17.07
2023-05-06T05:44:20.973Z,15.23
2023-05-06T05:49:23.018Z,15.35
2023-05-06T05:54:27.216Z,16.92
2023-05-06T05:59:29.889Z,16.70
2023-05-06T06:04:35.932Z,20.27
2023-05-06T06:09:38.829Z,16.00
2023-05-06T06:14:40.547Z,17.80
2023-05-06T06:19:46.901Z,20.40
2023-05-06T06:24:48.515Z,17.55
2023-05-06T06:29:50.313Z,16.35
2023-05-06T06:34:51.796Z,17.70
2023-05-06T06:39:53.289Z,19.20
2023-05-06T06:44:54.774Z,18.73
2023-05-06T06:49:56.265Z,16.77
2023-05-06T06:54:57.770Z,16.67
2023-05-06T06:59:59.225Z,17.60
2023-05-06T07:05:00.786Z,17.20
2023-05-06T07:10:02.217Z,18.55
2023-05-06T07:15:07.160Z,18.63
2023-05-06T07:20:09.323Z,18.35
2023-05-06T07:25:11.674Z,20.80
2023-05-06T07:30:13.682Z,20.85
2023-05-06T07:35:15.349Z,19.07
2023-05-06T07:40:16.935Z,21.10
2023-05-06T07:45:19.651Z,20.00
2023-05-06T07:50:21.803Z,22.45
2023-05-06T07:55:23.847Z,21.20
2023-05-06T08:00:26.109Z,22.02
2023-05-06T08:10:30.066Z,24.48
2023-05-06T08:15:32.409Z,22.80
2023-05-06T08:20:34.295Z,23.27
2023-05-06T08:25:36.295Z,24.90
2023-05-06T08:30:37.902Z,23.00
2023-05-06T08:35:39.394Z,22.92
2023-05-06T08:40:43.553Z,23.13
2023-05-06T08:45:45.090Z,27.45
2023-05-06T08:50:49.369Z,23.27
2023-05-06T08:55:53.995Z,24.17
2023-05-06T09:00:56.579Z,28.85
2023-05-06T09:05:58.316Z,27.88
2023-05-06T09:11:00.141Z,28.50
2023-05-06T09:16:01.724Z,30.00
2023-05-06T09:21:04.266Z,26.75
2023-05-06T09:31:07.739Z,28.42
2023-05-06T09:36:13.230Z,25.98
2023-05-06T09:41:16.816Z,27.85
2023-05-06T09:46:19.593Z,32.63
2023-05-06T09:51:22.008Z,24.15
2023-05-06T10:01:36.173Z,22.65
2023-05-06T10:06:41.999Z,21.50
2023-05-06T10:11:45.259Z,24.27
2023-05-06T10:16:48.954Z,23.83
2023-05-06T10:22:06.284Z,25.30
2023-05-06T10:27:09.587Z,23.48
2023-05-06T10:32:12.386Z,22.67
2023-05-06T10:37:14.623Z,22.33
2023-05-06T10:42:17.093Z,22.60
2023-05-06T10:52:19.981Z,22.48
2023-05-06T10:57:26.530Z,18.53
2023-05-06T11:02:30.265Z,22.35
2023-05-06T11:07:31.875Z,20.25
2023-05-06T11:12:53.564Z,26.95
2023-05-06T11:17:57.549Z,19.70
2023-05-06T11:22:59.139Z,19.67
2023-05-06T11:28:00.607Z,19.80
2023-05-06T11:33:05.616Z,17.42
2023-05-06T11:38:07.577Z,16.83
2023-05-06T11:43:16.329Z,14.77
2023-05-06T11:48:18.322Z,13.70
2023-05-06T11:53:22.984Z,13.45
2023-05-06T11:58:28.710Z,14.70
2023-05-06T12:03:32.787Z,16.90
2023-05-06T12:08:36.642Z,13.15
2023-05-06T12:13:38.922Z,11.85
2023-05-06T12:23:59.267Z,12.70
2023-05-06T12:29:11.521Z,27.25
2023-05-06T12:34:14.524Z,10.15
2023-05-06T12:39:17.424Z,22.50
2023-05-06T12:44:39.040Z,15.55
2023-05-06T12:49:53.736Z,13.40
2023-05-06T12:54:56.174Z,13.77
2023-05-06T12:59:57.682Z,15.48
2023-05-06T13:04:59.121Z,13.83
2023-05-06T13:10:00.968Z,12.30
2023-05-06T13:15:02.867Z,11.95
2023-05-06T13:20:05.441Z,11.43
2023-05-06T13:25:07.382Z,9.88
2023-05-06T13:30:09.392Z,17.35
2023-05-06T13:40:13.363Z,14.73
2023-05-06T13:50:16.336Z,11.73
2023-05-06T13:55:19.279Z,13.77
2023-05-06T14:00:21.326Z,16.15
2023-05-06T14:05:22.984Z,16.15
2023-05-06T14:10:24.545Z,18.52
2023-05-06T14:15:26.142Z,17.73
2023-05-06T14:20:27.578Z,21.35
2023-05-06T14:25:29.001Z,22.23
2023-05-06T14:30:31.069Z,22.73
2023-05-06T14:35:32.886Z,19.83
2023-05-06T14:40:35.945Z,19.35
2023-05-06T14:45:37.436Z,20.67
2023-05-06T14:50:38.927Z,17.47
2023-05-06T14:55:41.193Z,20.57
2023-05-06T15:00:42.621Z,22.27
2023-05-06T15:05:44.176Z,23.80
2023-05-06T15:10:45.760Z,21.00
2023-05-06T15:15:47.236Z,20.42
2023-05-06T15:20:48.767Z,22.90
2023-05-06T15:25:53.279Z,24.10
2023-05-06T15:30:54.801Z,27.00
2023-05-06T15:35:56.240Z,22.57
2023-05-06T15:40:57.674Z,23.83
2023-05-06T15:46:00.225Z,25.43
2023-05-06T15:51:01.900Z,22.02
2023-05-06T16:01:10.293Z,27.23
2023-05-06T16:06:11.856Z,20.67
2023-05-06T16:11:13.400Z,24.93
2023-05-06T16:16:14.932Z,20.80
2023-05-06T16:21:16.404Z,19.67
2023-05-06T16:26:17.847Z,20.03
2023-05-06T16:31:19.474Z,25.80
2023-05-06T16:36:21.037Z,24.30
2023-05-06T16:41:24.243Z,19.50
2023-05-06T16:46:26.279Z,19.13
2023-05-06T16:51:27.780Z,20.90
2023-05-06T16:56:43.937Z,22.30
2023-05-06T17:01:50.268Z,23.23
2023-05-06T17:06:51.761Z,20.17
2023-05-06T17:11:53.183Z,21.27
2023-05-06T17:17:05.256Z,18.20
2023-05-06T17:22:08.029Z,18.55
2023-05-06T17:27:09.614Z,20.25
2023-05-06T17:32:11.357Z,20.67
2023-05-06T17:37:12.881Z,23.48
2023-05-06T17:42:14.329Z,20.10
2023-05-06T17:47:17.367Z,19.02
2023-05-06T17:52:18.945Z,19.17
2023-05-06T17:57:30.281Z,20.13
2023-05-06T18:02:32.273Z,23.77
2023-05-06T18:07:36.014Z,23.65
2023-05-06T18:12:37.557Z,20.58
2023-05-06T18:17:39.073Z,23.77
2023-05-06T18:22:42.657Z,22.67
2023-05-06T18:27:44.553Z,26.20
2023-05-06T18:32:46.008Z,26.23
2023-05-06T18:37:47.595Z,22.10
2023-05-06T18:42:49.095Z,22.83
2023-05-06T18:47:50.549Z,26.67
2023-05-06T18:52:54.902Z,25.02
2023-05-06T18:57:56.377Z,23.83
2023-05-06T19:02:58.584Z,20.38
2023-05-06T19:08:00.191Z,19.95
2023-05-06T19:13:02.000Z,15.40
2023-05-06T19:18:04.054Z,17.70
2023-05-06T19:23:09.306Z,18.67
2023-05-06T19:28:13.781Z,15.02
2023-05-06T19:33:16.180Z,16.33
2023-05-06T19:38:18.216Z,16.50
2023-05-06T19:43:19.707Z,16.52
2023-05-06T19:48:23.365Z,15.23
2023-05-06T19:53:25.441Z,15.68
2023-05-06T19:58:29.821Z,16.70
2023-05-06T20:03:32.370Z,15.43
2023-05-06T20:13:36.180Z,19.83
2023-05-06T20:18:37.661Z,22.13
2023-05-06T20:23:39.098Z,19.85
2023-05-06T20:28:40.539Z,15.65
2023-05-06T20:33:42.300Z,16.40
2023-05-06T20:38:43.747Z,15.67
2023-05-06T20:43:45.376Z,13.32
2023-05-06T20:48:46.816Z,14.98
2023-05-06T20:53:48.249Z,12.68
2023-05-06T20:58:49.911Z,11.98
2023-05-06T21:03:51.603Z,13.68
2023-05-06T21:08:53.086Z,13.53
2023-05-06T21:13:54.503Z,13.57
2023-05-06T21:18:55.918Z,10.10
2023-05-06T21:23:57.332Z,12.70
2023-05-06T21:28:58.756Z,10.02
2023-05-06T21:34:00.352Z,10.00
2023-05-06T21:39:08.237Z,10.40
2023-05-06T21:44:10.259Z,12.27
2023-05-06T21:49:11.704Z,11.60
2023-05-06T21:54:13.392Z,11.45
2023-05-06T21:59:14.844Z,11.90
